Time;durP1;ratioP1;P1;durP2;ratioP2;P2;SDS_P1;SDS_P2;PMS_P1;PMS_P2;Temp;Humidity;BMP_temperature;BMP_pressure;BME280_temperature;BME280_humidity;BME280_pressure;Samples;Min_cycle;Max_cycle;Signal;HPM_P1;HPM_P2
2023/06/29 00:00:11;;;;;;;6.55;5.85;;;;;;;16.05;73.65;94786.59;4210469;28;20105;-55
2023/06/29 00:02:13;;;;;;;7.38;6.40;;;;;;;15.89;73.92;94782.38;4211739;28;20052;-58
2023/06/29 00:04:21;;;;;;;7.38;6.40;;;;;;;15.93;74.21;94780.19;4212538;28;20090;-59
2023/06/29 00:06:22;;;;;;;6.88;6.28;;;;;;;15.94;74.24;94780.00;4211430;28;20325;-56
2023/06/29 00:08:25;;;;;;;7.18;6.47;;;;;;;15.84;74.25;94790.06;4212232;28;20062;-55
2023/06/29 00:10:28;;;;;;;7.10;6.40;;;;;;;15.79;74.63;94792.47;4211723;28;20130;-54
2023/06/29 00:12:30;;;;;;;7.10;6.40;;;;;;;15.80;74.62;94788.81;4211776;28;20055;-56
2023/06/29 00:14:32;;;;;;;9.25;6.82;;;;;;;15.69;74.55;94778.72;4203872;28;20390;-55
2023/06/29 00:16:35;;;;;;;7.20;6.50;;;;;;;15.63;75.22;94776.81;4208408;28;20044;-54
2023/06/29 00:18:36;;;;;;;7.20;6.32;;;;;;;15.61;75.33;94784.94;4211562;28;20135;-55
2023/06/29 00:20:39;;;;;;;7.57;6.88;;;;;;;15.71;75.45;94780.19;4207729;28;20518;-53
2023/06/29 00:22:47;;;;;;;8.23;7.43;;;;;;;15.67;74.89;94778.09;4210925;28;20055;-57
2023/06/29 00:24:55;;;;;;;7.25;6.55;;;;;;;15.61;74.88;94768.28;4211483;28;20140;-55
2023/06/29 00:26:56;;;;;;;8.65;6.30;;;;;;;15.64;74.89;94766.09;4201051;28;20047;-55
2023/06/29 00:28:58;;;;;;;7.85;7.05;;;;;;;15.64;74.83;94767.88;4208536;28;20052;-53
2023/06/29 00:31:00;;;;;;;7.47;6.35;;;;;;;15.65;74.77;94764.25;4211754;28;20055;-57
2023/06/29 00:33:01;;;;;;;7.30;6.60;;;;;;;15.69;74.40;94757.59;4212845;28;20493;-57
2023/06/29 00:35:03;;;;;;;7.30;6.60;;;;;;;15.68;74.57;94753.31;4207759;28;20058;-56
2023/06/29 00:37:05;;;;;;;7.18;6.47;;;;;;;15.76;74.71;94755.84;4208163;28;20490;-58
2023/06/29 00:39:07;;;;;;;7.78;6.97;;;;;;;15.80;74.65;94757.09;4209970;28;20655;-58
2023/06/29 00:41:09;;;;;;;8.23;6.53;;;;;;;15.84;74.44;94757.56;4211388;28;20394;-57
2023/06/29 00:43:11;;;;;;;7.50;6.80;;;;;;;15.86;74.53;94759.00;4211271;28;20135;-55
2023/06/29 00:45:12;;;;;;;7.13;6.53;;;;;;;15.85;74.16;94757.38;4211851;28;20067;-57
2023/06/29 00:47:14;;;;;;;6.70;6.00;;;;;;;15.91;73.81;94767.16;4210723;28;20039;-56
2023/06/29 00:49:16;;;;;;;7.32;6.63;;;;;;;15.89;73.67;94766.53;4210752;28;20040;-56
2023/06/29 00:51:18;;;;;;;7.25;6.55;;;;;;;15.84;73.51;94774.22;4211369;28;20521;-57
2023/06/29 00:53:19;;;;;;;6.93;6.32;;;;;;;15.84;73.51;94768.94;4198662;28;20056;-53
2023/06/29 00:55:21;;;;;;;7.35;6.22;;;;;;;15.80;73.56;94775.59;4210746;28;20423;-58
2023/06/29 00:57:24;;;;;;;7.35;6.32;;;;;;;15.72;73.63;94775.72;4202292;28;20412;-56
2023/06/29 00:59:25;;;;;;;7.03;6.35;;;;;;;15.67;73.53;94772.81;4203104;28;20076;-54
2023/06/29 01:01:27;;;;;;;7.40;6.45;;;;;;;15.69;73.91;94773.44;4207779;28;20048;-57
2023/06/29 01:03:30;;;;;;;6.68;6.07;;;;;;;15.68;74.07;94774.44;4207241;28;20561;-58
2023/06/29 01:05:33;;;;;;;7.30;6.60;;;;;;;15.72;73.78;94770.44;4210577;28;20549;-56
2023/06/29 01:07:59;;;;;;;6.80;6.10;;;;;;;15.62;73.52;94775.22;4210929;28;20129;-50
2023/06/29 01:10:03;;;;;;;6.90;6.20;;;;;;;15.60;73.90;94778.03;4207687;28;20086;-53
2023/06/29 01:12:06;;;;;;;7.55;6.60;;;;;;;15.58;73.82;94777.41;4196825;28;20044;-54
2023/06/29 01:14:10;;;;;;;7.00;6.28;;;;;;;15.51;74.27;94773.88;4207765;28;20057;-55
2023/06/29 01:16:14;;;;;;;8.13;6.68;;;;;;;15.48;74.26;94772.41;4207091;28;20516;-55
2023/06/29 01:18:16;;;;;;;7.43;6.72;;;;;;;15.53;74.40;94777.13;4211491;28;20052;-56
2023/06/29 01:20:18;;;;;;;7.22;6.53;;;;;;;15.52;74.49;94771.03;4211300;28;20403;-55
2023/06/29 01:22:26;;;;;;;7.18;6.47;;;;;;;15.55;73.72;94770.69;4209080;28;20482;-59
2023/06/29 01:24:37;;;;;;;7.10;6.40;;;;;;;15.55;73.75;94769.84;4210062;28;20440;-58
2023/06/29 01:26:38;;;;;;;8.13;7.13;;;;;;;15.56;73.51;94777.56;4210506;28;20089;-56
2023/06/29 01:28:40;;;;;;;9.43;7.05;;;;;;;15.55;73.50;94775.97;4209455;28;20051;-57
2023/06/29 01:30:49;;;;;;;7.60;6.80;;;;;;;15.55;73.52;94775.13;4211439;28;20048;-56
2023/06/29 01:32:51;;;;;;;7.70;6.90;;;;;;;15.56;73.84;94777.56;4211595;28;20051;-58
2023/06/29 01:34:53;;;;;;;7.70;7.00;;;;;;;15.54;73.57;94768.22;4211543;28;20056;-58
2023/06/29 01:37:01;;;;;;;8.15;7.35;;;;;;;15.49;73.26;94776.69;4203770;28;20152;-57
2023/06/29 01:39:17;;;;;;;7.95;7.05;;;;;;;15.47;73.19;94770.78;4207070;28;20555;-58
2023/06/29 01:41:19;;;;;;;7.68;6.88;;;;;;;15.49;73.58;94774.06;4199554;28;20047;-55
2023/06/29 01:43:22;;;;;;;7.72;6.95;;;;;;;15.53;73.74;94771.84;4203001;28;20060;-54
2023/06/29 01:45:24;;;;;;;8.90;8.00;;;;;;;15.52;73.44;94767.59;4210066;28;20048;-58
2023/06/29 01:47:27;;;;;;;8.85;7.95;;;;;;;15.46;73.16;94766.50;4204242;28;20118;-58
2023/06/29 01:49:28;;;;;;;8.63;7.82;;;;;;;15.30;73.31;94766.75;4210215;28;20118;-57
2023/06/29 01:51:30;;;;;;;8.45;7.65;;;;;;;15.32;73.88;94770.03;4194095;28;20062;-56
2023/06/29 01:53:35;;;;;;;8.85;8.02;;;;;;;15.27;73.67;94767.09;4196618;28;20582;-58
2023/06/29 01:55:37;;;;;;;8.40;7.57;;;;;;;15.29;73.47;94770.38;4211030;28;20095;-54
2023/06/29 01:57:39;;;;;;;9.77;8.77;;;;;;;15.32;73.37;94770.03;4201843;28;20048;-57
2023/06/29 01:59:41;;;;;;;9.43;8.52;;;;;;;15.32;73.34;94770.03;4207215;28;20052;-56
2023/06/29 02:01:43;;;;;;;9.07;8.18;;;;;;;15.29;73.29;94765.09;4209225;28;20056;-60
2023/06/29 02:03:44;;;;;;;10.27;8.98;;;;;;;15.28;73.38;94768.75;4210373;28;20450;-57
2023/06/29 02:05:46;;;;;;;10.65;9.00;;;;;;;15.27;73.40;94772.38;4203823;28;20049;-56
2023/06/29 02:07:48;;;;;;;9.93;8.75;;;;;;;15.22;73.46;94775.59;4193758;28;20120;-57
2023/06/29 02:09:51;;;;;;;10.43;8.60;;;;;;;15.23;73.54;94779.03;4206379;28;20055;-57
2023/06/29 02:11:53;;;;;;;11.50;9.17;;;;;;;15.17;73.12;94779.81;4209057;28;20056;-56
2023/06/29 02:13:54;;;;;;;9.77;8.88;;;;;;;15.15;73.45;94780.78;4210077;28;20300;-55
2023/06/29 02:15:56;;;;;;;9.80;8.88;;;;;;;15.20;73.46;94782.06;4209852;28;20047;-58
2023/06/29 02:17:58;;;;;;;10.55;9.15;;;;;;;15.22;73.32;94777.41;4206211;28;20044;-57
2023/06/29 02:20:00;;;;;;;10.20;9.00;;;;;;;15.19;72.94;94773.31;4202699;28;20081;-56
2023/06/29 02:22:01;;;;;;;9.70;8.73;;;;;;;15.17;73.14;94777.97;4208943;28;20093;-60
2023/06/29 02:24:04;;;;;;;13.90;8.60;;;;;;;15.20;73.10;94774.94;4198553;28;20121;-58
2023/06/29 02:26:06;;;;;;;10.30;9.30;;;;;;;15.22;72.95;94775.59;4202109;28;20053;-56
2023/06/29 02:28:07;;;;;;;10.32;9.10;;;;;;;15.20;72.85;94769.66;4206039;28;20044;-58
2023/06/29 02:30:10;;;;;;;9.65;8.75;;;;;;;15.22;72.82;94769.50;4208303;28;20083;-56
2023/06/29 02:32:11;;;;;;;9.48;8.35;;;;;;;15.18;73.14;94776.94;4199650;28;20110;-56
2023/06/29 02:34:13;;;;;;;9.93;8.63;;;;;;;15.17;73.10;94772.69;4210191;28;20056;-58
2023/06/29 02:36:20;;;;;;;9.70;8.23;;;;;;;15.20;72.93;94772.31;4202583;28;20094;-58
2023/06/29 02:38:22;;;;;;;9.20;8.30;;;;;;;15.17;72.84;94766.59;4206616;28;20048;-57
2023/06/29 02:40:24;;;;;;;12.32;8.30;;;;;;;15.12;72.47;94767.13;4199096;28;20056;-56
2023/06/29 02:42:27;;;;;;;9.02;8.13;;;;;;;15.08;72.60;94768.53;4207731;28;20052;-56
2023/06/29 02:44:28;;;;;;;9.45;8.55;;;;;;;15.03;72.59;94766.44;4202046;28;20436;-58
2023/06/29 02:46:30;;;;;;;9.05;8.13;;;;;;;14.99;72.70;94770.44;4204255;28;20070;-59
2023/06/29 02:48:32;;;;;;;9.00;8.10;;;;;;;14.95;72.69;94775.28;4203499;28;20147;-56
2023/06/29 02:50:34;;;;;;;9.18;8.13;;;;;;;14.91;72.94;94774.00;4213475;28;20611;-58
2023/06/29 02:52:35;;;;;;;8.95;8.05;;;;;;;14.90;73.06;94774.19;4207166;28;20206;-56
2023/06/29 02:54:37;;;;;;;9.63;8.60;;;;;;;14.90;72.96;94777.63;4203551;28;20059;-60
2023/06/29 02:56:39;;;;;;;9.00;8.10;;;;;;;14.91;72.87;94778.47;4202822;28;20106;-55
2023/06/29 02:58:40;;;;;;;9.20;8.30;;;;;;;14.88;72.98;94784.09;4206630;28;20498;-58
2023/06/29 03:00:42;;;;;;;11.23;8.95;;;;;;;14.90;72.66;94776.81;4205949;28;20039;-60
2023/06/29 03:02:44;;;;;;;8.95;8.15;;;;;;;14.97;72.55;94782.19;4208795;28;20098;-59
2023/06/29 03:04:45;;;;;;;10.20;8.35;;;;;;;14.90;72.65;94776.81;4211007;28;20048;-56
2023/06/29 03:06:47;;;;;;;9.68;8.20;;;;;;;14.84;72.70;94782.81;4209308;28;20545;-56
2023/06/29 03:08:49;;;;;;;9.55;8.55;;;;;;;14.80;72.64;94785.03;4201666;28;20131;-56
2023/06/29 03:10:51;;;;;;;9.20;8.30;;;;;;;14.78;72.84;94783.56;4213129;28;20077;-56
2023/06/29 03:12:53;;;;;;;9.70;8.80;;;;;;;14.77;72.58;94789.84;4213278;28;20569;-56
2023/06/29 03:14:54;;;;;;;8.88;7.97;;;;;;;14.71;72.36;94789.59;4212905;28;20124;-56
2023/06/29 03:16:56;;;;;;;9.50;8.60;;;;;;;14.80;72.33;94785.03;4208026;28;20076;-56
2023/06/29 03:18:58;;;;;;;9.15;8.23;;;;;;;14.71;72.70;94789.59;4210857;28;20130;-56
2023/06/29 03:21:01;;;;;;;10.02;8.73;;;;;;;14.82;72.76;94790.09;4211198;28;20131;-54
2023/06/29 03:23:17;;;;;;;9.98;8.60;;;;;;;14.84;72.39;94788.09;4207065;28;20044;-57
2023/06/29 03:25:19;;;;;;;11.43;9.35;;;;;;;14.86;72.32;94789.56;4212052;28;20052;-56
2023/06/29 03:27:21;;;;;;;12.05;9.23;;;;;;;14.91;72.18;94789.84;4204086;28;20101;-57
2023/06/29 03:29:22;;;;;;;11.70;9.63;;;;;;;14.91;72.20;94794.31;4212244;28;20192;-55
2023/06/29 03:31:24;;;;;;;12.05;9.82;;;;;;;14.88;72.02;94795.47;4207819;28;20052;-55
2023/06/29 03:33:26;;;;;;;10.68;9.70;;;;;;;14.88;72.08;94794.66;4211304;28;20059;-55
2023/06/29 03:35:28;;;;;;;12.15;9.30;;;;;;;14.99;72.03;94796.00;4211590;28;20055;-53
2023/06/29 03:37:29;;;;;;;10.93;9.90;;;;;;;15.02;71.75;94796.47;4210938;28;20579;-57
2023/06/29 03:39:31;;;;;;;11.85;10.57;;;;;;;15.10;71.52;94795.53;4212852;28;20078;-56
2023/06/29 03:41:32;;;;;;;10.35;9.32;;;;;;;15.11;71.27;94802.44;4212357;28;20048;-58
2023/06/29 03:43:34;;;;;;;13.15;9.70;;;;;;;15.21;71.11;94800.34;4212194;28;20048;-54
2023/06/29 03:45:36;;;;;;;14.15;9.70;;;;;;;15.29;71.04;94800.25;4211502;28;20605;-57
2023/06/29 03:47:37;;;;;;;10.52;9.43;;;;;;;15.33;70.47;94798.84;4213397;28;20100;-59
2023/06/29 03:49:39;;;;;;;11.10;10.00;;;;;;;15.31;70.39;94802.69;4213208;28;20040;-55
2023/06/29 03:51:41;;;;;;;11.93;9.77;;;;;;;15.34;70.58;94799.69;4212574;28;20311;-57
2023/06/29 03:53:43;;;;;;;10.52;9.20;;;;;;;15.44;70.23;94799.38;4210746;28;20045;-55
2023/06/29 03:55:45;;;;;;;11.20;9.85;;;;;;;15.39;70.28;94807.84;4212804;28;20079;-58
2023/06/29 03:57:47;;;;;;;11.35;9.70;;;;;;;15.35;70.56;94798.66;4211382;28;20062;-59
2023/06/29 03:59:49;;;;;;;11.82;10.52;;;;;;;15.39;70.01;94799.94;4210479;28;20062;-56
2023/06/29 04:01:51;;;;;;;12.75;10.02;;;;;;;15.38;70.23;94811.50;4212963;28;20056;-57
2023/06/29 04:03:53;;;;;;;14.48;9.80;;;;;;;15.46;70.54;94810.56;4212810;28;20052;-56
2023/06/29 04:05:55;;;;;;;13.95;10.25;;;;;;;15.50;69.87;94812.66;4211953;28;20078;-52
2023/06/29 04:08:04;;;;;;;10.32;9.23;;;;;;;15.53;69.35;94809.66;4211425;28;20048;-56
2023/06/29 04:10:07;;;;;;;12.20;10.00;;;;;;;15.56;69.26;94811.91;4211963;28;20063;-58
2023/06/29 04:12:09;;;;;;;11.02;9.88;;;;;;;15.45;69.49;94801.03;4211388;28;20059;-59
2023/06/29 04:14:10;;;;;;;10.50;9.50;;;;;;;15.48;69.59;94817.28;4212605;28;20430;-57
2023/06/29 04:16:13;;;;;;;11.43;10.32;;;;;;;15.45;69.08;94815.03;4211635;28;20409;-57
2023/06/29 04:18:15;;;;;;;11.73;10.38;;;;;;;15.48;68.91;94816.47;4213002;28;20389;-57
2023/06/29 04:20:17;;;;;;;11.68;10.50;;;;;;;15.55;69.31;94812.09;4212701;28;20473;-56
2023/06/29 04:22:18;;;;;;;11.80;10.60;;;;;;;15.53;69.14;94814.94;4211287;28;20048;-57
2023/06/29 04:24:20;;;;;;;13.85;10.93;;;;;;;15.57;69.08;94816.19;4211450;28;20440;-56
2023/06/29 04:26:22;;;;;;;12.00;10.52;;;;;;;15.65;69.21;94817.06;4211973;28;20060;-58
2023/06/29 04:28:24;;;;;;;12.18;10.70;;;;;;;15.66;69.23;94803.69;4211619;28;20052;-58
2023/06/29 04:30:25;;;;;;;11.45;10.35;;;;;;;15.70;69.12;94809.41;4211889;28;20043;-57
2023/06/29 04:32:27;;;;;;;11.98;10.80;;;;;;;15.62;68.72;94809.53;4211946;28;20044;-55
2023/06/29 04:34:29;;;;;;;11.75;10.57;;;;;;;15.60;69.20;94804.44;4210098;28;20117;-54
2023/06/29 04:36:31;;;;;;;12.07;10.57;;;;;;;15.73;68.67;94803.78;4212257;28;20075;-58
2023/06/29 04:38:33;;;;;;;11.88;10.68;;;;;;;15.72;68.65;94802.97;4212240;28;20055;-55
2023/06/29 04:40:39;;;;;;;11.32;10.20;;;;;;;15.76;68.66;94808.69;4208856;28;20044;-58
2023/06/29 04:42:47;;;;;;;13.27;10.77;;;;;;;15.82;69.17;94812.41;4210057;28;20462;-57
2023/06/29 04:44:49;;;;;;;13.73;11.32;;;;;;;15.79;68.21;94810.97;4212722;28;20040;-55
2023/06/29 04:46:51;;;;;;;12.27;10.55;;;;;;;15.80;67.98;94809.94;4210548;28;20044;-56
2023/06/29 04:48:52;;;;;;;12.10;10.77;;;;;;;15.84;67.97;94815.69;4210566;28;20055;-55
2023/06/29 04:51:02;;;;;;;13.70;11.85;;;;;;;15.90;68.12;94813.09;4211604;28;20048;-54
2023/06/29 04:53:09;;;;;;;12.88;11.57;;;;;;;15.93;67.09;94815.34;4211695;28;20131;-58
2023/06/29 04:55:11;;;;;;;13.45;11.40;;;;;;;16.03;66.86;94816.88;4196579;28;20060;-56
2023/06/29 04:57:12;;;;;;;11.73;10.55;;;;;;;15.97;66.70;94819.25;4199581;28;20052;-58
2023/06/29 04:59:14;;;;;;;13.05;11.38;;;;;;;15.91;67.05;94821.81;4203316;28;20136;-60
2023/06/29 05:01:16;;;;;;;13.05;11.43;;;;;;;15.84;67.54;94820.97;4195464;28;20052;-60
2023/06/29 05:03:18;;;;;;;12.10;10.75;;;;;;;15.81;67.26;94819.50;4212269;28;20055;-56
2023/06/29 05:05:19;;;;;;;12.05;10.82;;;;;;;15.72;67.17;94828.53;4222778;28;20052;-58
2023/06/29 05:07:21;;;;;;;12.88;11.63;;;;;;;15.73;67.13;94830.19;4209626;28;20565;-57
2023/06/29 05:09:23;;;;;;;12.18;10.98;;;;;;;15.88;67.39;94833.59;4209729;28;20142;-58
2023/06/29 05:11:24;;;;;;;13.38;11.52;;;;;;;16.05;67.38;94828.88;4208435;28;20645;-59
2023/06/29 05:13:26;;;;;;;12.57;11.27;;;;;;;16.08;67.26;94827.69;4211744;28;20040;-55
2023/06/29 05:15:28;;;;;;;13.60;11.48;;;;;;;16.02;67.59;94833.72;4212238;28;20123;-58
2023/06/29 05:17:30;;;;;;;12.85;11.55;;;;;;;16.19;67.44;94837.72;4210719;28;20486;-59
2023/06/29 05:19:36;;;;;;;11.80;10.60;;;;;;;16.28;67.13;94839.25;4202435;28;20043;-59
2023/06/29 05:21:37;;;;;;;11.82;10.65;;;;;;;16.30;66.30;94839.03;4211106;28;20048;-57
2023/06/29 05:23:39;;;;;;;13.18;11.75;;;;;;;16.02;66.46;94842.44;4210930;28;20109;-60
2023/06/29 05:25:42;;;;;;;12.20;11.00;;;;;;;16.03;67.25;94843.28;4206975;28;20055;-56
2023/06/29 05:27:44;;;;;;;12.60;11.30;;;;;;;16.11;66.63;94840.50;4208929;28;20426;-59
2023/06/29 05:29:46;;;;;;;12.98;11.70;;;;;;;16.16;66.81;94848.69;4211661;28;20050;-58
2023/06/29 05:31:47;;;;;;;15.45;11.45;;;;;;;16.21;66.46;94835.72;4210291;28;20085;-57
2023/06/29 05:33:49;;;;;;;13.38;11.52;;;;;;;16.20;66.34;94843.81;4210024;28;20055;-55
2023/06/29 05:35:51;;;;;;;16.02;11.52;;;;;;;16.25;66.27;94839.63;4206977;28;20589;-58
2023/06/29 05:37:52;;;;;;;12.38;11.02;;;;;;;16.30;66.15;94841.69;4211314;28;20052;-56
2023/06/29 05:39:56;;;;;;;13.20;10.65;;;;;;;16.25;65.88;94844.09;4211900;28;20056;-56
2023/06/29 05:41:58;;;;;;;;;;;;;;;16.16;66.23;94848.69;4209823;28;20055;-56
2023/06/29 05:43:59;;;;;;;11.52;10.43;;;;;;;16.12;65.86;94844.78;4210677;28;19951;-58
2023/06/29 05:46:02;;;;;;;13.05;11.52;;;;;;;16.21;66.53;94842.84;4211254;28;20054;-59
2023/06/29 05:48:05;;;;;;;14.80;11.75;;;;;;;16.21;65.88;94834.91;4211047;28;20097;-57
2023/06/29 05:50:07;;;;;;;13.00;11.65;;;;;;;15.93;67.01;94847.03;4211498;28;20062;-56
2023/06/29 05:52:09;;;;;;;12.07;10.38;;;;;;;16.22;66.74;94849.75;4210960;28;20047;-57
2023/06/29 05:54:11;;;;;;;13.13;11.63;;;;;;;15.86;67.52;94855.94;4211270;28;20055;-56
2023/06/29 05:56:12;;;;;;;13.25;11.43;;;;;;;15.24;69.34;94858.03;4210721;28;20074;-55
2023/06/29 05:58:14;;;;;;;13.82;11.23;;;;;;;14.87;71.14;94849.22;4210516;28;20058;-55
2023/06/29 06:00:18;;;;;;;14.90;11.40;;;;;;;14.66;70.87;94844.66;4194912;28;20098;-61
2023/06/29 06:02:19;;;;;;;18.08;11.88;;;;;;;14.69;71.44;94849.59;4202703;28;20043;-59
2023/06/29 06:04:21;;;;;;;14.38;11.57;;;;;;;15.06;70.74;94842.59;4211002;28;20054;-57
2023/06/29 06:06:23;;;;;;;15.63;12.48;;;;;;;15.32;70.81;94844.75;4209562;28;20286;-58
2023/06/29 06:08:25;;;;;;;13.73;12.25;;;;;;;15.56;69.94;94846.22;4209519;28;20042;-58
2023/06/29 06:10:26;;;;;;;12.88;11.57;;;;;;;15.62;69.28;94846.50;4210427;28;20090;-58
2023/06/29 06:12:28;;;;;;;13.52;11.75;;;;;;;15.87;68.71;94845.16;4209966;28;20485;-59
2023/06/29 06:14:30;;;;;;;13.10;10.90;;;;;;;15.50;68.31;94851.44;4210337;28;20051;-57
2023/06/29 06:16:32;;;;;;;12.60;11.30;;;;;;;15.28;69.73;94853.22;4209838;28;20040;-60
2023/06/29 06:18:33;;;;;;;16.30;11.27;;;;;;;15.23;70.14;94848.50;4210012;28;20078;-58
2023/06/29 06:20:35;;;;;;;17.27;12.13;;;;;;;15.42;69.82;94843.63;4199896;28;20060;-57
2023/06/29 06:22:37;;;;;;;13.30;11.98;;;;;;;15.46;70.10;94842.25;4204931;28;20445;-55
2023/06/29 06:24:39;;;;;;;17.25;11.55;;;;;;;15.82;69.62;94839.63;4211792;28;20093;-58
2023/06/29 06:26:40;;;;;;;13.90;11.13;;;;;;;16.19;68.47;94843.03;4210438;28;20044;-58
2023/06/29 06:28:42;;;;;;;11.50;9.35;;;;;;;16.32;65.89;94843.13;4209862;28;20663;-57
2023/06/29 06:30:43;;;;;;;8.73;7.82;;;;;;;16.64;64.36;94838.28;4205958;28;20561;-58
2023/06/29 06:32:45;;;;;;;11.10;8.30;;;;;;;16.66;64.00;94848.69;4203128;28;20048;-58
2023/06/29 06:34:50;;;;;;;18.70;8.70;;;;;;;16.68;64.34;94839.53;4209077;28;20047;-61
2023/06/29 06:36:52;;;;;;;10.30;8.88;;;;;;;16.90;63.87;94840.31;4208819;28;20152;-60
2023/06/29 06:38:54;;;;;;;14.38;9.07;;;;;;;17.05;63.89;94845.47;4207475;28;20044;-55
2023/06/29 06:40:55;;;;;;;16.58;10.68;;;;;;;16.72;64.80;94851.38;4209455;28;20101;-58
2023/06/29 06:42:57;;;;;;;10.73;9.68;;;;;;;16.53;65.59;94854.69;4209851;28;20408;-54
2023/06/29 06:45:03;;;;;;;13.35;10.13;;;;;;;16.16;66.76;94846.88;4209608;28;20048;-57
2023/06/29 06:47:05;;;;;;;12.80;10.07;;;;;;;15.92;67.30;94853.34;4208078;28;20047;-59
2023/06/29 06:49:07;;;;;;;18.38;9.70;;;;;;;15.62;68.62;94844.69;4199379;28;20055;-54
2023/06/29 06:51:08;;;;;;;12.35;10.07;;;;;;;15.73;67.92;94853.97;4210038;28;20091;-59
2023/06/29 06:53:10;;;;;;;13.57;9.65;;;;;;;16.03;67.31;94843.28;4199179;28;20044;-60
2023/06/29 06:55:12;;;;;;;12.70;8.55;;;;;;;16.33;66.34;94838.69;4207573;28;20075;-60
2023/06/29 06:57:14;;;;;;;11.00;8.60;;;;;;;16.62;65.30;94840.31;4209944;28;20129;-57
2023/06/29 06:59:16;;;;;;;15.50;9.38;;;;;;;16.93;65.00;94841.78;4211008;28;20054;-56
2023/06/29 07:01:21;;;;;;;10.45;8.05;;;;;;;17.21;63.20;94844.38;4210597;28;20205;-59
2023/06/29 07:03:24;;;;;;;19.35;9.82;;;;;;;16.63;64.71;94835.81;4209683;28;20436;-62
2023/06/29 07:05:26;;;;;;;10.90;9.75;;;;;;;16.16;66.35;94841.56;4209448;28;20048;-60
2023/06/29 07:07:27;;;;;;;10.15;8.38;;;;;;;16.04;66.56;94847.56;4203005;28;20059;-58
2023/06/29 07:09:29;;;;;;;11.02;9.20;;;;;;;15.72;67.78;94852.31;4207486;28;20044;-56
2023/06/29 07:11:31;;;;;;;11.27;8.85;;;;;;;16.10;67.30;94839.69;4209475;28;20044;-56
2023/06/29 07:13:33;;;;;;;8.68;7.88;;;;;;;16.26;65.49;94845.72;4210853;28;20106;-57
2023/06/29 07:15:34;;;;;;;7.85;7.10;;;;;;;16.40;64.88;94842.19;4210449;28;20048;-58
2023/06/29 07:17:36;;;;;;;8.40;7.22;;;;;;;16.64;63.78;94840.13;4207814;28;20040;-59
2023/06/29 07:19:38;;;;;;;10.45;7.80;;;;;;;16.98;64.30;94840.16;4207166;28;20041;-58
2023/06/29 07:21:43;;;;;;;8.95;7.50;;;;;;;17.07;62.29;94846.09;4210010;28;20051;-56
2023/06/29 07:24:05;;;;;;;8.55;6.28;;;;;;;16.76;62.23;94842.03;4207061;28;20104;-58
2023/06/29 07:26:08;;;;;;;12.60;8.70;;;;;;;16.97;62.40;94841.19;4201877;28;20051;-56
2023/06/29 07:28:11;;;;;;;18.40;12.23;;;;;;;16.60;63.20;94837.03;4207540;28;20044;-56
2023/06/29 07:30:13;;;;;;;19.90;11.90;;;;;;;16.82;64.14;94834.34;4210806;28;20128;-58
2023/06/29 07:32:15;;;;;;;11.35;8.70;;;;;;;17.24;63.96;94836.00;4209041;28;20044;-59
2023/06/29 07:34:22;;;;;;;16.50;11.38;;;;;;;17.51;63.10;94838.75;4197703;28;20056;-59
2023/06/29 07:36:25;;;;;;;11.52;8.50;;;;;;;17.69;63.28;94832.94;4212553;28;20273;-58
2023/06/29 07:38:27;;;;;;;13.15;8.80;;;;;;;17.76;62.46;94836.41;4210845;28;20052;-56
2023/06/29 07:40:29;;;;;;;24.25;13.68;;;;;;;17.33;61.72;94831.38;4208984;28;20044;-58
2023/06/29 07:42:30;;;;;;;9.55;7.13;;;;;;;17.64;62.45;94830.03;4210598;28;20418;-59
2023/06/29 07:44:40;;;;;;;7.95;6.43;;;;;;;17.78;60.51;94826.41;4210583;28;20125;-62
2023/06/29 07:46:42;;;;;;;9.68;6.47;;;;;;;18.04;59.85;94819.56;4210736;28;20051;-59
2023/06/29 07:48:44;;;;;;;14.48;7.97;;;;;;;18.09;58.87;94825.91;4211717;28;20119;-55
2023/06/29 07:50:45;;;;;;;12.57;8.07;;;;;;;17.53;59.05;94834.91;4208710;28;20624;-54
2023/06/29 07:52:47;;;;;;;7.97;6.07;;;;;;;17.08;60.02;94826.59;4205036;28;20043;-60
2023/06/29 07:54:51;;;;;;;8.98;6.88;;;;;;;17.12;61.19;94827.00;4213443;28;20058;-57
2023/06/29 07:56:53;;;;;;;18.45;10.80;;;;;;;17.20;60.35;94832.13;4211023;28;20078;-58
2023/06/29 07:58:57;;;;;;;10.10;7.80;;;;;;;17.66;59.73;94823.56;4207820;28;20052;-60
2023/06/29 08:00:59;;;;;;;8.95;5.55;;;;;;;17.76;57.13;94823.16;4207250;28;20058;-62
2023/06/29 08:03:01;;;;;;;7.55;5.45;;;;;;;17.78;58.25;94819.28;4212501;28;20439;-60
2023/06/29 08:05:03;;;;;;;7.32;4.90;;;;;;;18.11;58.17;94815.06;4198672;28;20044;-56
2023/06/29 08:07:08;;;;;;;7.10;5.75;;;;;;;17.81;59.70;94824.19;4210819;28;20048;-59
2023/06/29 08:09:11;;;;;;;10.15;7.70;;;;;;;17.91;60.46;94817.72;4209255;28;20044;-55
2023/06/29 08:11:14;;;;;;;6.20;5.60;;;;;;;18.15;60.49;94818.97;4211848;28;20506;-56
2023/06/29 08:13:16;;;;;;;7.75;5.30;;;;;;;18.44;59.89;94822.25;4211244;28;20079;-58
2023/06/29 08:15:17;;;;;;;8.85;5.10;;;;;;;18.71;58.71;94817.72;4212396;28;20043;-58
2023/06/29 08:17:19;;;;;;;8.32;5.05;;;;;;;18.93;57.72;94816.50;4212310;28;20070;-59
2023/06/29 08:19:21;;;;;;;6.93;4.93;;;;;;;19.24;56.69;94818.44;4210790;28;20131;-63
2023/06/29 08:21:23;;;;;;;7.22;5.35;;;;;;;19.22;57.01;94822.34;4208364;28;20066;-57
2023/06/29 08:23:25;;;;;;;5.78;5.18;;;;;;;19.16;56.69;94826.63;4207400;28;20083;-60
2023/06/29 08:25:27;;;;;;;6.85;5.07;;;;;;;19.07;56.66;94827.06;4212362;28;20055;-60
2023/06/29 08:27:29;;;;;;;6.47;4.97;;;;;;;19.00;56.64;94817.28;4209940;28;20077;-59
2023/06/29 08:29:30;;;;;;;9.15;5.13;;;;;;;19.00;57.28;94816.47;4211876;28;20036;-57
2023/06/29 08:31:32;;;;;;;5.53;4.80;;;;;;;19.08;56.71;94821.56;4213233;28;20048;-56
2023/06/29 08:33:34;;;;;;;5.28;4.70;;;;;;;19.28;56.28;94813.53;4203858;28;20048;-59
2023/06/29 08:35:36;;;;;;;6.85;5.15;;;;;;;19.28;56.35;94823.34;4210302;28;20052;-56
2023/06/29 08:37:37;;;;;;;8.25;5.45;;;;;;;19.01;56.66;94826.06;4203504;28;20048;-58
2023/06/29 08:39:40;;;;;;;6.43;4.55;;;;;;;19.11;56.04;94818.47;4207396;28;20052;-57
2023/06/29 08:41:41;;;;;;;7.45;4.53;;;;;;;19.32;55.52;94813.94;4211359;28;20600;-60
2023/06/29 08:43:43;;;;;;;4.55;4.15;;;;;;;19.29;55.61;94814.34;4209389;28;20493;-58
2023/06/29 08:45:45;;;;;;;6.10;4.68;;;;;;;19.05;55.52;94813.19;4212000;28;20039;-58
2023/06/29 08:47:51;;;;;;;10.77;4.45;;;;;;;19.20;55.43;94814.56;4212903;28;20047;-57
2023/06/29 08:49:56;;;;;;;10.77;6.32;;;;;;;19.36;56.12;94809.81;4212405;28;20040;-58
2023/06/29 08:51:59;;;;;;;5.97;3.83;;;;;;;19.52;53.61;94812.00;4210251;28;20447;-57
2023/06/29 08:54:01;;;;;;;5.30;3.25;;;;;;;19.69;53.24;94801.69;4199981;28;20502;-57
2023/06/29 08:56:03;;;;;;;4.32;3.10;;;;;;;19.87;51.68;94805.50;4211100;28;20079;-59
2023/06/29 08:58:05;;;;;;;4.90;3.55;;;;;;;19.50;52.07;94806.06;4206965;28;20131;-57
2023/06/29 09:00:08;;;;;;;7.60;4.53;;;;;;;19.09;54.38;94801.94;4209939;28;20234;-58
2023/06/29 09:02:10;;;;;;;4.15;3.35;;;;;;;19.35;53.74;94800.22;4213049;28;20044;-62
2023/06/29 09:04:12;;;;;;;5.35;3.42;;;;;;;19.53;53.72;94794.19;4207007;28;20051;-58
2023/06/29 09:06:15;;;;;;;7.38;3.70;;;;;;;19.75;53.70;94805.38;4211991;28;20052;-59
2023/06/29 09:08:17;;;;;;;4.93;3.97;;;;;;;19.83;54.58;94791.81;4210465;28;20652;-55
2023/06/29 09:10:18;;;;;;;4.10;3.70;;;;;;;19.86;54.46;94794.06;4212234;28;20052;-58
2023/06/29 09:12:20;;;;;;;4.63;3.85;;;;;;;19.85;54.30;94789.75;4210316;28;20374;-58
2023/06/29 09:14:22;;;;;;;8.88;4.68;;;;;;;19.55;54.84;94803.63;4212178;28;20043;-58
2023/06/29 09:16:28;;;;;;;4.78;4.15;;;;;;;19.52;55.49;94782.75;4211075;28;20052;-59
2023/06/29 09:18:32;;;;;;;5.18;3.95;;;;;;;19.75;55.61;94789.44;4212757;28;20040;-59
2023/06/29 09:20:35;;;;;;;8.70;3.60;;;;;;;19.87;53.75;94792.22;4212171;28;20082;-57
2023/06/29 09:22:39;;;;;;;4.38;3.10;;;;;;;20.02;52.55;94798.03;4211285;28;20044;-59
2023/06/29 09:24:41;;;;;;;5.18;3.17;;;;;;;20.14;53.10;94790.19;4203221;28;20070;-57
2023/06/29 09:27:02;;;;;;;5.30;3.17;;;;;;;20.23;52.41;94788.88;4202028;28;20055;-56
2023/06/29 09:29:04;;;;;;;5.32;3.33;;;;;;;20.05;52.27;94793.09;4209956;28;20190;-60
2023/06/29 09:31:08;;;;;;;7.28;3.47;;;;;;;20.20;53.04;94790.13;4210582;28;20060;-61